Mabelvale, Arkansas
Current Conditions -  °F | °C
As of 8:53 AM on Monday 22 Dec 2014 (Local Time) from KLIT Reporting Station
Haze Haze  
Wind Chill: 51°   Ceiling: 500
Heat Index: 51°   Visibility: 6mi
Dew Point: 47°   Wind: 9mph
Humidity: 86%   Direction: 160°SSE
Pressure: 29.73"   Gusts: NA
Location:  34.66°N, 92.39°W
Report Text: KLIT 221453Z 16008KT 6SM BR OVC005 11/08 A2973 RMK AO2 SLP070 60000 T01060083 58008
Loading
Personal Weather Stations






























Interactive Weather Map New forecast layout! Learn more

10-Day Weather Forecast

Advertisements
Track Severe Weather on mobile